Terminal Aerodrome Forecast
Issued by NWS Burlington, VT

Home | Current Version | Previous Version | Text Only | Print | Product List | Glossary On
Versions: 1 2 3 4 5 6 7 8 9 10 11 12 13 14 15 16 17 18 19 20 21 22 23 24 25
000
FTUS41 KBTV 172322
TAFBTV
TAF
KBTV 172322Z 1800/1824 VRB03KT P6SM VCSH BKN025 OVC035
     FM180700 31006KT 2SM -SHSN BR OVC008
     FM181500 32008KT P6SM VCSH OVC020=

USA.gov is the U.S. government's official web portal to all federal, state and local government web resources and services.